Time;durP1;ratioP1;P1;durP2;ratioP2;P2;SDS_P1;SDS_P2;PMS_P1;PMS_P2;Temp;Humidity;BMP_temperature;BMP_pressure;BME280_temperature;BME280_humidity;BME280_pressure;Samples;Min_cycle;Max_cycle;Signal;HPM_P1;HPM_P2
2024/03/16 00:01:58;;;;;;;8.57;2.83;;;;;;;;;;5073590;28;20024;-68
2024/03/16 00:04:25;;;;;;;5.55;2.03;;;;;;;;;;5075598;28;20028;-68
2024/03/16 00:06:51;;;;;;;6.95;2.38;;;;;;;;;;5074143;28;20031;-68
2024/03/16 00:09:17;;;;;;;5.80;2.03;;;;;;;;;;5074156;28;20016;-67
2024/03/16 00:11:43;;;;;;;5.88;1.80;;;;;;;;;;5073759;28;20510;-67
2024/03/16 00:14:09;;;;;;;7.03;2.42;;;;;;;;;;5073471;28;20025;-68
2024/03/16 00:16:35;;;;;;;5.07;1.85;;;;;;;;;;5074193;28;20025;-68
2024/03/16 00:19:01;;;;;;;5.85;2.30;;;;;;;;;;5073380;28;20017;-68
2024/03/16 00:21:27;;;;;;;5.18;1.42;;;;;;;;;;5074347;28;20033;-67
2024/03/16 00:23:53;;;;;;;6.60;1.95;;;;;;;;;;5074752;28;20024;-69
2024/03/16 00:26:19;;;;;;;5.75;1.92;;;;;;;;;;5075786;28;20024;-68
2024/03/16 00:28:46;;;;;;;4.97;1.52;;;;;;;;;;5075119;28;20025;-68
2024/03/16 00:31:13;;;;;;;4.43;1.75;;;;;;;;;;5057666;28;20023;-68
2024/03/16 00:33:39;;;;;;;6.07;1.42;;;;;;;;;;5078297;28;20116;-67
2024/03/16 00:36:05;;;;;;;2.83;1.40;;;;;;;;;;5083759;28;20391;-66
2024/03/16 00:38:31;;;;;;;6.40;2.15;;;;;;;;;;5102392;28;20017;-67
2024/03/16 00:40:57;;;;;;;2.90;0.90;;;;;;;;;;5084140;28;20027;-68
2024/03/16 00:43:23;;;;;;;3.75;1.40;;;;;;;;;;5102892;28;20020;-68
2024/03/16 00:45:49;;;;;;;3.38;1.40;;;;;;;;;;5096055;28;20115;-68
2024/03/16 00:48:15;;;;;;;5.65;1.50;;;;;;;;;;5097418;28;20054;-67
2024/03/16 00:50:41;;;;;;;6.28;1.80;;;;;;;;;;5079187;28;20024;-69
2024/03/16 00:53:09;;;;;;;3.30;1.42;;;;;;;;;;5107034;22;20047;-77
2024/03/16 00:55:35;;;;;;;5.10;1.80;;;;;;;;;;5057833;28;20028;-76
2024/03/16 00:58:01;;;;;;;3.95;1.67;;;;;;;;;;5057707;28;20115;-76
2024/03/16 01:00:28;;;;;;;5.78;1.48;;;;;;;;;;5069873;28;20024;-76
2024/03/16 01:02:54;;;;;;;3.63;1.45;;;;;;;;;;5077877;28;20028;-76
2024/03/16 01:05:22;;;;;;;3.53;1.38;;;;;;;;;;5078506;28;20497;-76
2024/03/16 01:07:48;;;;;;;2.83;1.50;;;;;;;;;;5097656;28;20024;-77
2024/03/16 01:10:14;;;;;;;3.90;1.30;;;;;;;;;;5079305;28;20050;-77
2024/03/16 01:12:40;;;;;;;4.53;1.65;;;;;;;;;;5079071;28;20557;-76
2024/03/16 01:15:07;;;;;;;6.07;2.00;;;;;;;;;;5059550;28;20024;-77
2024/03/16 01:17:35;;;;;;;3.80;1.60;;;;;;;;;;5057578;28;20024;-76
2024/03/16 01:20:02;;;;;;;3.80;1.60;;;;;;;;;;5058729;28;20020;-76
2024/03/16 01:22:28;;;;;;;5.13;1.40;;;;;;;;;;5058181;28;20028;-77
2024/03/16 01:24:54;;;;;;;7.82;1.42;;;;;;;;;;5075926;28;20028;-77
2024/03/16 01:27:20;;;;;;;4.05;1.30;;;;;;;;;;5077302;28;20032;-77
2024/03/16 01:29:46;;;;;;;2.03;1.30;;;;;;;;;;5066225;28;20024;-77
2024/03/16 01:32:12;;;;;;;6.00;2.13;;;;;;;;;;5065188;28;20063;-77
2024/03/16 01:34:39;;;;;;;4.95;1.60;;;;;;;;;;5063120;28;20106;-76
2024/03/16 01:37:05;;;;;;;8.80;1.73;;;;;;;;;;5063264;28;20104;-76
2024/03/16 01:39:31;;;;;;;4.22;1.17;;;;;;;;;;5066478;28;20092;-75
2024/03/16 01:41:57;;;;;;;4.10;1.10;;;;;;;;;;5061562;28;20031;-77
2024/03/16 01:44:24;;;;;;;6.82;1.77;;;;;;;;;;5059506;28;20025;-76
2024/03/16 01:46:51;;;;;;;2.83;1.77;;;;;;;;;;5066449;28;20486;-76
2024/03/16 01:49:17;;;;;;;4.43;1.98;;;;;;;;;;5061782;28;20063;-79
2024/03/16 01:51:43;;;;;;;3.13;1.67;;;;;;;;;;5059601;28;20089;-73
2024/03/16 01:54:10;;;;;;;3.97;1.85;;;;;;;;;;5059379;28;20035;-75
2024/03/16 01:56:36;;;;;;;7.57;2.40;;;;;;;;;;5058390;28;20027;-76
2024/03/16 01:59:02;;;;;;;4.82;1.60;;;;;;;;;;5056794;28;20031;-76
2024/03/16 02:01:29;;;;;;;4.75;1.60;;;;;;;;;;5056069;28;20107;-76
2024/03/16 02:03:57;;;;;;;4.47;1.92;;;;;;;;;;5056733;28;20031;-76
2024/03/16 02:06:24;;;;;;;3.15;1.77;;;;;;;;;;5055536;28;20031;-76
2024/03/16 02:08:51;;;;;;;7.90;2.25;;;;;;;;;;5073117;28;20107;-76
2024/03/16 02:11:17;;;;;;;4.78;1.63;;;;;;;;;;5054473;28;20108;-76
2024/03/16 02:13:43;;;;;;;3.97;1.48;;;;;;;;;;5072930;28;20020;-76
2024/03/16 02:16:09;;;;;;;3.13;1.38;;;;;;;;;;5055063;28;20078;-75
2024/03/16 02:18:35;;;;;;;5.47;1.67;;;;;;;;;;5055739;28;20115;-76
2024/03/16 02:21:05;;;;;;;4.70;1.60;;;;;;;;;;5054143;28;20454;-76
2024/03/16 02:23:31;;;;;;;6.05;1.88;;;;;;;;;;5054476;28;20024;-73
2024/03/16 02:25:58;;;;;;;3.33;1.50;;;;;;;;;;5072559;28;20028;-75
2024/03/16 02:28:24;;;;;;;3.17;1.75;;;;;;;;;;5054911;28;20029;-73
2024/03/16 02:30:50;;;;;;;2.78;1.60;;;;;;;;;;5072598;28;20510;-73
2024/03/16 02:33:16;;;;;;;3.10;1.77;;;;;;;;;;5061849;28;20054;-71
2024/03/16 02:35:42;;;;;;;4.75;2.30;;;;;;;;;;5074936;28;20020;-75
2024/03/16 02:38:09;;;;;;;5.75;1.92;;;;;;;;;;5075151;28;20474;-75
2024/03/16 02:40:36;;;;;;;5.43;1.65;;;;;;;;;;5074944;28;20024;-74
2024/03/16 02:43:04;;;;;;;4.13;1.75;;;;;;;;;;5074652;28;20028;-73
2024/03/16 02:45:31;;;;;;;2.97;1.30;;;;;;;;;;5074386;28;20074;-73
2024/03/16 02:47:58;;;;;;;3.92;1.73;;;;;;;;;;5074901;28;20085;-76
2024/03/16 02:50:24;;;;;;;4.00;2.10;;;;;;;;;;5059856;28;20127;-75
2024/03/16 02:52:50;;;;;;;3.53;1.58;;;;;;;;;;5055022;28;20064;-72
2024/03/16 02:55:16;;;;;;;4.82;1.45;;;;;;;;;;5077237;28;20074;-73
2024/03/16 02:57:42;;;;;;;2.88;1.10;;;;;;;;;;5079548;28;20032;-73
2024/03/16 03:00:11;;;;;;;4.97;1.40;;;;;;;;;;5062165;28;20017;-72
2024/03/16 03:02:37;;;;;;;2.72;1.60;;;;;;;;;;5066266;28;20059;-73
2024/03/16 03:05:04;;;;;;;5.18;1.60;;;;;;;;;;5067284;28;20029;-72
2024/03/16 03:07:30;;;;;;;3.25;1.65;;;;;;;;;;5081074;28;20595;-72
2024/03/16 03:09:56;;;;;;;2.85;1.70;;;;;;;;;;5077911;28;20036;-72
2024/03/16 03:12:25;;;;;;;4.40;1.67;;;;;;;;;;5077621;28;20020;-73
2024/03/16 03:14:51;;;;;;;5.35;1.60;;;;;;;;;;5077618;28;20458;-74
2024/03/16 03:17:17;;;;;;;5.55;1.90;;;;;;;;;;5077996;28;20033;-72
2024/03/16 03:19:44;;;;;;;4.25;1.20;;;;;;;;;;5095858;28;20385;-73
2024/03/16 03:22:10;;;;;;;4.40;1.73;;;;;;;;;;5093871;28;20111;-74
2024/03/16 03:24:36;;;;;;;3.78;1.40;;;;;;;;;;5077615;28;20521;-72
2024/03/16 03:27:02;;;;;;;5.85;3.17;;;;;;;;;;5077382;28;20115;-72
2024/03/16 03:29:28;;;;;;;5.75;1.63;;;;;;;;;;5095844;28;20032;-73
2024/03/16 03:31:56;;;;;;;3.33;1.55;;;;;;;;;;5095483;28;20028;-75
2024/03/16 03:34:23;;;;;;;3.40;1.75;;;;;;;;;;5078301;28;20020;-76
2024/03/16 03:36:49;;;;;;;3.50;1.63;;;;;;;;;;5081683;28;20051;-76
2024/03/16 03:39:18;;;;;;;2.83;1.85;;;;;;;;;;5083898;28;20024;-76
2024/03/16 03:41:44;;;;;;;5.55;1.88;;;;;;;;;;5100509;28;20020;-75
2024/03/16 03:44:24;;;;;;;4.70;2.38;;;;;;;;;;5080037;28;20141;-76
2024/03/16 03:46:50;;;;;;;3.10;2.28;;;;;;;;;;5078513;28;20070;-73
2024/03/16 03:49:26;;;;;;;4.72;2.03;;;;;;;;;;5077607;28;20027;-72
2024/03/16 03:51:59;;;;;;;7.43;2.13;;;;;;;;;;5095176;28;20032;-72
2024/03/16 03:54:25;;;;;;;7.53;3.35;;;;;;;;;;5076541;28;20028;-73
2024/03/16 03:56:51;;;;;;;3.55;1.60;;;;;;;;;;5077914;28;20542;-73
2024/03/16 03:59:18;;;;;;;2.42;1.55;;;;;;;;;;5077602;28;20020;-72
2024/03/16 04:01:44;;;;;;;4.75;2.47;;;;;;;;;;5095405;28;20450;-73
2024/03/16 04:04:10;;;;;;;7.57;2.15;;;;;;;;;;5077138;28;20395;-74
2024/03/16 04:06:36;;;;;;;5.00;1.90;;;;;;;;;;5095455;28;20174;-76
2024/03/16 04:09:02;;;;;;;3.75;2.20;;;;;;;;;;5075554;28;20020;-73
2024/03/16 04:11:28;;;;;;;2.67;1.90;;;;;;;;;;5055326;28;20472;-77
2024/03/16 04:13:55;;;;;;;7.07;2.88;;;;;;;;;;5055028;28;20391;-74
2024/03/16 04:16:21;;;;;;;4.15;1.90;;;;;;;;;;5055800;28;20045;-76
2024/03/16 04:18:48;;;;;;;7.28;2.53;;;;;;;;;;5056228;28;20368;-73
2024/03/16 04:21:15;;;;;;;2.88;2.10;;;;;;;;;;5055367;28;20041;-76
2024/03/16 04:23:41;;;;;;;5.35;2.00;;;;;;;;;;5057802;28;20021;-75
2024/03/16 04:26:08;;;;;;;6.15;1.92;;;;;;;;;;5068118;28;20398;-76
2024/03/16 04:28:34;;;;;;;6.63;2.72;;;;;;;;;;5078922;28;20475;-76
2024/03/16 04:31:00;;;;;;;5.05;2.63;;;;;;;;;;5078580;28;20035;-75
2024/03/16 04:33:27;;;;;;;3.67;1.92;;;;;;;;;;5079289;28;20077;-77
2024/03/16 04:35:53;;;;;;;6.55;2.00;;;;;;;;;;5078436;28;20020;-73
2024/03/16 04:38:22;;;;;;;3.20;1.88;;;;;;;;;;5077429;28;20024;-73
2024/03/16 04:40:48;;;;;;;3.78;1.70;;;;;;;;;;5079243;28;20032;-74
2024/03/16 04:43:16;;;;;;;6.05;2.40;;;;;;;;;;5066743;28;20033;-74
2024/03/16 04:45:46;;;;;;;2.80;1.88;;;;;;;;;;5078838;28;20027;-72
2024/03/16 04:48:12;;;;;;;4.07;2.28;;;;;;;;;;5060937;28;20025;-71
2024/03/16 04:50:38;;;;;;;4.55;2.17;;;;;;;;;;5076985;28;20027;-72
2024/03/16 04:53:04;;;;;;;4.95;2.28;;;;;;;;;;5075011;28;20032;-71
2024/03/16 04:55:31;;;;;;;6.88;2.08;;;;;;;;;;5074419;28;20016;-72
2024/03/16 04:58:02;;;;;;;6.50;2.22;;;;;;;;;;5056354;28;20032;-73
2024/03/16 05:00:28;;;;;;;;;;;;;;;;;;5056666;28;20101;-72
2024/03/16 05:02:54;;;;;;;3.15;1.83;;;;;;;;;;5055955;28;19962;-74
2024/03/16 05:05:20;;;;;;;3.78;2.33;;;;;;;;;;5057670;28;20048;-76
2024/03/16 05:07:46;;;;;;;3.58;2.15;;;;;;;;;;5056848;28;20056;-72
2024/03/16 05:10:12;;;;;;;2.92;1.60;;;;;;;;;;5074366;28;20020;-75
2024/03/16 05:12:38;;;;;;;4.45;1.70;;;;;;;;;;5056052;28;20082;-75
2024/03/16 05:15:05;;;;;;;6.03;2.30;;;;;;;;;;5057791;28;20017;-76
2024/03/16 05:17:31;;;;;;;7.80;2.33;;;;;;;;;;5056639;28;20065;-76
2024/03/16 05:19:57;;;;;;;4.07;2.00;;;;;;;;;;5056256;28;20066;-75
2024/03/16 05:22:24;;;;;;;3.17;2.00;;;;;;;;;;5056200;28;20025;-75
2024/03/16 05:24:50;;;;;;;4.40;1.80;;;;;;;;;;5056297;28;20088;-74
2024/03/16 05:27:16;;;;;;;5.30;1.90;;;;;;;;;;5056386;28;20035;-73
2024/03/16 05:29:42;;;;;;;3.22;2.20;;;;;;;;;;5056242;28;20538;-74
2024/03/16 05:32:08;;;;;;;3.20;1.90;;;;;;;;;;5064590;28;20398;-74
2024/03/16 05:34:34;;;;;;;3.85;2.00;;;;;;;;;;5076932;28;20024;-75
2024/03/16 05:37:01;;;;;;;2.25;1.80;;;;;;;;;;5095811;28;20031;-74
2024/03/16 05:39:27;;;;;;;5.05;2.10;;;;;;;;;;5081115;28;20482;-75
2024/03/16 05:41:53;;;;;;;3.95;1.98;;;;;;;;;;5061482;28;20021;-76
2024/03/16 05:44:19;;;;;;;4.20;2.30;;;;;;;;;;5044868;28;20025;-76
2024/03/16 05:46:46;;;;;;;4.00;2.35;;;;;;;;;;5038963;28;20071;-77
2024/03/16 05:49:12;;;;;;;4.60;2.40;;;;;;;;;;5052090;28;20383;-77
2024/03/16 05:51:38;;;;;;;4.85;2.65;;;;;;;;;;5058555;28;20016;-78
2024/03/16 05:54:04;;;;;;;3.05;2.38;;;;;;;;;;5059017;28;20035;-76
2024/03/16 05:56:32;;;;;;;4.13;1.88;;;;;;;;;;5057555;28;20032;-77
2024/03/16 05:58:58;;;;;;;5.68;2.17;;;;;;;;;;5056271;28;20089;-75
2024/03/16 06:01:24;;;;;;;5.40;2.25;;;;;;;;;;5056640;28;20028;-76
2024/03/16 06:03:51;;;;;;;4.65;1.83;;;;;;;;;;5061453;28;20035;-77
2024/03/16 06:06:17;;;;;;;4.00;2.30;;;;;;;;;;5073083;28;20589;-76
2024/03/16 06:08:44;;;;;;;4.68;1.98;;;;;;;;;;5071340;28;20048;-76
2024/03/16 06:11:10;;;;;;;4.95;1.70;;;;;;;;;;5059924;28;20025;-76
2024/03/16 06:13:36;;;;;;;5.60;1.80;;;;;;;;;;5059336;28;20032;-76
2024/03/16 06:16:02;;;;;;;6.43;2.38;;;;;;;;;;5055706;28;20017;-75
2024/03/16 06:18:28;;;;;;;4.38;1.92;;;;;;;;;;5075384;28;20360;-77
2024/03/16 06:20:54;;;;;;;4.40;2.10;;;;;;;;;;5058186;28;20032;-77
2024/03/16 06:23:20;;;;;;;4.47;1.52;;;;;;;;;;5072897;28;20033;-73
2024/03/16 06:25:50;;;;;;;5.38;1.58;;;;;;;;;;5075299;28;20024;-76
2024/03/16 06:28:17;;;;;;;6.05;1.73;;;;;;;;;;5080008;28;20028;-75
2024/03/16 06:30:49;;;;;;;8.98;2.00;;;;;;;;;;5078632;28;20028;-74
2024/03/16 06:33:27;;;;;;;4.72;1.75;;;;;;;;;;5093975;28;20050;-74
2024/03/16 06:35:56;;;;;;;4.38;2.15;;;;;;;;;;5073304;28;20409;-75
2024/03/16 06:38:22;;;;;;;4.22;1.90;;;;;;;;;;5075270;28;20016;-74
2024/03/16 06:40:52;;;;;;;5.43;2.28;;;;;;;;;;5080250;28;20025;-72
2024/03/16 06:43:18;;;;;;;2.90;1.73;;;;;;;;;;5054128;28;20032;-72
2024/03/16 06:45:44;;;;;;;4.18;1.83;;;;;;;;;;5073044;28;20035;-78
2024/03/16 06:48:10;;;;;;;3.60;2.17;;;;;;;;;;5055265;28;20524;-76
2024/03/16 06:50:36;;;;;;;8.10;2.28;;;;;;;;;;5054704;28;20020;-76
2024/03/16 06:53:03;;;;;;;4.57;2.03;;;;;;;;;;5069987;22;20111;-68
2024/03/16 06:55:29;;;;;;;4.43;1.73;;;;;;;;;;5071679;28;20029;-67
2024/03/16 06:57:55;;;;;;;6.75;1.98;;;;;;;;;;5071625;28;20120;-70
2024/03/16 07:00:21;;;;;;;3.97;1.70;;;;;;;;;;5071780;28;20142;-69
2024/03/16 07:02:47;;;;;;;2.28;1.63;;;;;;;;;;5071600;28;20031;-69
2024/03/16 07:05:13;;;;;;;3.78;1.67;;;;;;;;;;5079490;28;20020;-68
2024/03/16 07:07:40;;;;;;;2.83;1.80;;;;;;;;;;5091423;28;20527;-68
2024/03/16 07:10:06;;;;;;;4.22;1.90;;;;;;;;;;5072192;28;20077;-68
2024/03/16 07:12:32;;;;;;;3.03;1.88;;;;;;;;;;5091089;28;20050;-67
2024/03/16 07:14:59;;;;;;;4.25;1.75;;;;;;;;;;5091354;28;20020;-68
2024/03/16 07:17:26;;;;;;;6.00;2.15;;;;;;;;;;5091613;28;20055;-70
2024/03/16 07:19:53;;;;;;;2.70;1.95;;;;;;;;;;5091653;28;20020;-70
2024/03/16 07:22:19;;;;;;;4.68;2.65;;;;;;;;;;5088867;28;20020;-67
2024/03/16 07:24:45;;;;;;;4.20;1.80;;;;;;;;;;5090516;28;20039;-67
2024/03/16 07:27:11;;;;;;;4.43;2.42;;;;;;;;;;5091425;28;20032;-67
2024/03/16 07:29:37;;;;;;;6.20;2.33;;;;;;;;;;5091294;28;20119;-67
2024/03/16 07:32:03;;;;;;;4.30;2.28;;;;;;;;;;5090555;28;20095;-67
2024/03/16 07:34:29;;;;;;;5.32;2.00;;;;;;;;;;5090119;28;20028;-68
2024/03/16 07:36:58;;;;;;;4.20;2.25;;;;;;;;;;5090920;28;20089;-68
2024/03/16 07:39:24;;;;;;;4.00;2.47;;;;;;;;;;5074095;28;20017;-68
2024/03/16 07:41:50;;;;;;;6.30;2.10;;;;;;;;;;5069855;28;20491;-67
2024/03/16 07:44:16;;;;;;;8.05;2.22;;;;;;;;;;5070192;28;20103;-67
2024/03/16 07:46:42;;;;;;;7.50;2.40;;;;;;;;;;5069891;28;20017;-67
2024/03/16 07:49:08;;;;;;;5.95;2.22;;;;;;;;;;5073019;28;20067;-69
2024/03/16 07:51:35;;;;;;;10.93;2.40;;;;;;;;;;5055154;28;20017;-69
2024/03/16 07:54:01;;;;;;;4.50;2.10;;;;;;;;;;5073408;28;20103;-68
2024/03/16 07:56:27;;;;;;;2.42;1.98;;;;;;;;;;5092161;28;20022;-71
2024/03/16 07:58:53;;;;;;;3.88;2.30;;;;;;;;;;5087731;28;20054;-70
2024/03/16 08:01:20;;;;;;;4.60;2.00;;;;;;;;;;5072953;28;20021;-68
2024/03/16 08:03:46;;;;;;;4.82;2.38;;;;;;;;;;5073168;28;20534;-67
2024/03/16 08:06:12;;;;;;;3.22;2.45;;;;;;;;;;5072725;28;20062;-67
2024/03/16 08:08:38;;;;;;;2.63;2.35;;;;;;;;;;5072726;28;20075;-67
2024/03/16 08:11:07;;;;;;;3.65;2.17;;;;;;;;;;5071980;28;20096;-67
2024/03/16 08:13:34;;;;;;;3.28;2.10;;;;;;;;;;5069718;28;20395;-67
2024/03/16 08:16:00;;;;;;;2.45;1.75;;;;;;;;;;5071588;28;20124;-66
2024/03/16 08:18:26;;;;;;;3.50;1.90;;;;;;;;;;5071877;28;20207;-68
2024/03/16 08:20:57;;;;;;;4.15;1.45;;;;;;;;;;5071194;28;20020;-67
2024/03/16 08:23:23;;;;;;;2.05;1.42;;;;;;;;;;5088818;28;20024;-72
2024/03/16 08:25:49;;;;;;;4.05;1.80;;;;;;;;;;5077663;28;20134;-69
2024/03/16 08:28:15;;;;;;;5.03;1.98;;;;;;;;;;5053741;28;20071;-71
2024/03/16 08:30:42;;;;;;;2.95;1.20;;;;;;;;;;5063729;28;20074;-69
2024/03/16 08:33:08;;;;;;;1.58;0.95;;;;;;;;;;5072676;28;20478;-67
2024/03/16 08:35:35;;;;;;;3.47;1.25;;;;;;;;;;5072697;28;20032;-73
2024/03/16 08:38:01;;;;;;;2.53;1.08;;;;;;;;;;5072917;28;20017;-69
2024/03/16 08:40:27;;;;;;;5.38;1.38;;;;;;;;;;5072670;28;20190;-71
2024/03/16 08:42:53;;;;;;;2.67;1.25;;;;;;;;;;5072530;28;20085;-70
2024/03/16 08:45:19;;;;;;;2.42;1.10;;;;;;;;;;5072610;28;20111;-71
2024/03/16 08:47:45;;;;;;;3.53;1.00;;;;;;;;;;5080437;28;20469;-68
2024/03/16 08:50:12;;;;;;;2.95;0.82;;;;;;;;;;5078009;28;20035;-67
2024/03/16 08:52:38;;;;;;;2.15;1.20;;;;;;;;;;5078318;28;20044;-70
2024/03/16 08:55:04;;;;;;;2.78;0.88;;;;;;;;;;5073998;28;20075;-70
2024/03/16 08:57:30;;;;;;;3.00;1.08;;;;;;;;;;5072350;28;20027;-69
2024/03/16 08:59:57;;;;;;;2.00;0.90;;;;;;;;;;5085195;28;20390;-69
2024/03/16 09:02:26;;;;;;;2.45;1.10;;;;;;;;;;5092603;28;20509;-68
2024/03/16 09:04:52;;;;;;;2.13;1.15;;;;;;;;;;5090837;28;20036;-69
2024/03/16 09:07:19;;;;;;;4.57;1.83;;;;;;;;;;5091615;28;20207;-67
2024/03/16 09:09:46;;;;;;;1.92;1.10;;;;;;;;;;5071525;28;20020;-68
2024/03/16 09:12:12;;;;;;;4.85;1.33;;;;;;;;;;5073878;28;20021;-69
2024/03/16 09:14:38;;;;;;;2.17;1.10;;;;;;;;;;5092037;28;20119;-67
2024/03/16 09:17:05;;;;;;;3.00;0.75;;;;;;;;;;5091903;28;20044;-69
2024/03/16 09:19:32;;;;;;;1.95;0.73;;;;;;;;;;5092117;28;20027;-68
2024/03/16 09:21:58;;;;;;;2.17;0.88;;;;;;;;;;5073222;28;20063;-67
2024/03/16 09:24:24;;;;;;;1.73;0.70;;;;;;;;;;5091569;28;20020;-67
2024/03/16 09:27:09;;;;;;;0.98;0.50;;;;;;;;;;5083915;28;20012;-68
2024/03/16 09:29:35;;;;;;;4.22;0.82;;;;;;;;;;5071173;28;20020;-69
2024/03/16 09:32:01;;;;;;;2.28;0.90;;;;;;;;;;5071265;28;20019;-68
2024/03/16 09:34:27;;;;;;;1.27;0.57;;;;;;;;;;5069666;28;20028;-69
2024/03/16 09:36:53;;;;;;;1.38;0.98;;;;;;;;;;5059949;28;20092;-68
2024/03/16 09:39:26;;;;;;;3.55;0.47;;;;;;;;;;5061914;28;20020;-69
2024/03/16 09:41:52;;;;;;;3.22;1.58;;;;;;;;;;5061678;28;20028;-68
2024/03/16 09:44:18;;;;;;;3.50;0.57;;;;;;;;;;5060998;28;20123;-69
2024/03/16 09:46:45;;;;;;;3.00;0.38;;;;;;;;;;5065641;28;20475;-69
2024/03/16 09:49:12;;;;;;;0.75;0.13;;;;;;;;;;5071188;28;20369;-67
2024/03/16 09:51:38;;;;;;;1.25;0.30;;;;;;;;;;5070893;28;20021;-69
2024/03/16 09:54:11;;;;;;;3.42;0.30;;;;;;;;;;5072339;28;20029;-68
2024/03/16 09:56:37;;;;;;;0.20;0.10;;;;;;;;;;5073615;28;20028;-68
2024/03/16 09:59:03;;;;;;;0.73;0.30;;;;;;;;;;5074847;28;20028;-69
2024/03/16 10:01:30;;;;;;;0.57;0.20;;;;;;;;;;5072894;28;20020;-67
2024/03/16 10:03:56;;;;;;;2.15;1.20;;;;;;;;;;5091119;28;20028;-68
2024/03/16 10:06:22;;;;;;;8.18;0.75;;;;;;;;;;5091314;28;20036;-66
2024/03/16 10:08:48;;;;;;;1.35;0.20;;;;;;;;;;5091275;28;20032;-66
2024/03/16 10:11:15;;;;;;;1.02;0.40;;;;;;;;;;5090018;28;20035;-66
2024/03/16 10:13:57;;;;;;;3.08;0.38;;;;;;;;;;5090856;28;20020;-67
2024/03/16 10:16:23;;;;;;;;;;;;;;;;;;5056477;28;20021;-67
2024/03/16 10:18:52;;;;;;;2.63;0.40;;;;;;;;;;5072575;28;19931;-72
2024/03/16 10:21:18;;;;;;;3.70;0.65;;;;;;;;;;5062229;28;20470;-70
2024/03/16 10:23:47;;;;;;;3.17;0.63;;;;;;;;;;5091012;28;20048;-69
2024/03/16 10:26:13;;;;;;;2.28;0.35;;;;;;;;;;5071535;28;20024;-67
2024/03/16 10:28:42;;;;;;;2.67;0.30;;;;;;;;;;5069646;28;20056;-68
2024/03/16 10:31:09;;;;;;;1.25;0.43;;;;;;;;;;5069325;28;20146;-69
2024/03/16 10:33:39;;;;;;;2.05;0.20;;;;;;;;;;5069570;28;20115;-71
2024/03/16 10:36:06;;;;;;;0.47;0.20;;;;;;;;;;5076605;28;20025;-67
2024/03/16 10:38:32;;;;;;;2.95;0.63;;;;;;;;;;5087667;28;20024;-70
2024/03/16 10:41:04;;;;;;;2.53;0.40;;;;;;;;;;5089772;28;20031;-68
2024/03/16 10:43:31;;;;;;;1.95;0.20;;;;;;;;;;5089823;28;20472;-68
2024/03/16 10:45:58;;;;;;;1.90;0.28;;;;;;;;;;5089933;28;20099;-68
2024/03/16 10:48:25;;;;;;;3.58;1.35;;;;;;;;;;5089167;28;20036;-69
2024/03/16 10:50:56;;;;;;;0.85;0.30;;;;;;;;;;5068967;28;20134;-68
2024/03/16 10:53:25;;;;;;;0.30;0.10;;;;;;;;;;5069102;28;20128;-67
2024/03/16 10:55:51;;;;;;;0.75;0.32;;;;;;;;;;5069542;28;20497;-67
2024/03/16 10:58:21;;;;;;;0.32;0.30;;;;;;;;;;5069100;28;20472;-68
2024/03/16 11:00:50;;;;;;;0.82;0.20;;;;;;;;;;5069431;28;20016;-69
2024/03/16 11:03:30;;;;;;;0.90;0.25;;;;;;;;;;5069770;28;20089;-69
2024/03/16 11:06:23;;;;;;;0.30;0.20;;;;;;;;;;5080732;28;20036;-68
2024/03/16 11:08:50;;;;;;;0.30;0.30;;;;;;;;;;5090405;28;20465;-68
2024/03/16 11:11:16;;;;;;;0.93;0.60;;;;;;;;;;5090212;28;20039;-69
2024/03/16 11:14:11;;;;;;;2.53;0.90;;;;;;;;;;5089954;28;20111;-68
2024/03/16 11:16:44;;;;;;;2.33;1.40;;;;;;;;;;5064305;28;20021;-68
2024/03/16 11:19:17;;;;;;;1.67;0.80;;;;;;;;;;5069709;28;20513;-67
2024/03/16 11:21:48;;;;;;;0.50;0.50;;;;;;;;;;5064435;28;20104;-68
2024/03/16 11:24:14;;;;;;;;;;;;;;;;;;5054155;28;20025;-69
2024/03/16 11:26:43;;;;;;;2.17;0.45;;;;;;;;;;5054190;28;20279;-70
2024/03/16 11:29:16;;;;;;;0.50;0.50;;;;;;;;;;5036248;28;20090;-69
2024/03/16 11:31:46;;;;;;;0.77;0.60;;;;;;;;;;5087580;28;20490;-69
2024/03/16 11:34:15;;;;;;;0.57;0.50;;;;;;;;;;5094522;28;20032;-70
2024/03/16 11:36:45;;;;;;;0.38;0.35;;;;;;;;;;5076102;28;20028;-69
2024/03/16 11:39:11;;;;;;;1.40;0.95;;;;;;;;;;5094198;28;20028;-69
2024/03/16 11:41:43;;;;;;;0.80;0.60;;;;;;;;;;5093867;28;20021;-70
2024/03/16 11:44:13;;;;;;;1.25;0.60;;;;;;;;;;5094071;28;20508;-69
2024/03/16 11:46:40;;;;;;;2.28;0.68;;;;;;;;;;5082735;28;20100;-69
2024/03/16 11:49:09;;;;;;;1.70;0.90;;;;;;;;;;5072326;28;20167;-68
2024/03/16 11:51:36;;;;;;;1.35;0.70;;;;;;;;;;5071996;28;20016;-69
2024/03/16 11:54:03;;;;;;;1.10;0.35;;;;;;;;;;5072506;28;20040;-67
2024/03/16 11:56:29;;;;;;;0.63;0.30;;;;;;;;;;5072441;28;20435;-69
2024/03/16 11:58:56;;;;;;;1.92;0.43;;;;;;;;;;5072549;28;20108;-69
2024/03/16 12:01:22;;;;;;;3.72;0.52;;;;;;;;;;5072601;28;20392;-68
2024/03/16 12:03:49;;;;;;;1.10;0.45;;;;;;;;;;5055342;28;20102;-68
2024/03/16 12:06:15;;;;;;;1.52;0.47;;;;;;;;;;5072675;28;20031;-70
2024/03/16 12:08:42;;;;;;;2.50;0.50;;;;;;;;;;5074816;28;20028;-70
2024/03/16 12:11:11;;;;;;;2.25;1.05;;;;;;;;;;5075677;28;20447;-69
2024/03/16 12:13:37;;;;;;;3.00;0.70;;;;;;;;;;5076646;28;20482;-68
2024/03/16 12:16:04;;;;;;;3.58;0.50;;;;;;;;;;5075094;28;20008;-74
2024/03/16 12:18:31;;;;;;;1.35;0.60;;;;;;;;;;5056990;28;20032;-74
2024/03/16 12:20:57;;;;;;;3.40;0.63;;;;;;;;;;5055496;28;20042;-72
2024/03/16 12:23:30;;;;;;;3.83;0.65;;;;;;;;;;5073091;28;20033;-75
2024/03/16 12:25:59;;;;;;;1.23;0.70;;;;;;;;;;5076719;28;20033;-72
2024/03/16 12:28:25;;;;;;;1.17;0.38;;;;;;;;;;5073979;28;20028;-74
2024/03/16 12:30:52;;;;;;;1.80;0.60;;;;;;;;;;5074385;28;20032;-74
2024/03/16 12:33:19;;;;;;;1.73;0.40;;;;;;;;;;5055022;28;20497;-72
2024/03/16 12:35:45;;;;;;;1.13;0.40;;;;;;;;;;5063988;28;20439;-75
2024/03/16 12:38:11;;;;;;;3.22;0.60;;;;;;;;;;5076311;28;20324;-71
2024/03/16 12:40:38;;;;;;;1.85;0.47;;;;;;;;;;5071971;28;20505;-68
2024/03/16 12:43:05;;;;;;;0.90;0.40;;;;;;;;;;5078267;28;20065;-69
2024/03/16 12:45:32;;;;;;;0.98;0.40;;;;;;;;;;5080997;28;20103;-68
2024/03/16 12:47:58;;;;;;;0.63;0.22;;;;;;;;;;5083058;28;20033;-67
2024/03/16 12:50:24;;;;;;;0.95;0.30;;;;;;;;;;5072228;28;20108;-70
2024/03/16 12:52:50;;;;;;;5.82;1.10;;;;;;;;;;5071215;22;20016;-73
2024/03/16 12:55:16;;;;;;;6.70;0.60;;;;;;;;;;5051349;28;20029;-73
2024/03/16 12:57:42;;;;;;;1.48;0.40;;;;;;;;;;5078121;28;20095;-72
2024/03/16 13:00:11;;;;;;;3.22;0.38;;;;;;;;;;5074752;28;20017;-70
2024/03/16 13:02:37;;;;;;;0.95;0.45;;;;;;;;;;5064842;28;20028;-73
2024/03/16 13:05:05;;;;;;;1.50;0.73;;;;;;;;;;5069272;28;20046;-72
2024/03/16 13:07:31;;;;;;;1.08;0.60;;;;;;;;;;5073919;28;20040;-72
2024/03/16 13:09:57;;;;;;;1.55;0.70;;;;;;;;;;5068761;28;20032;-73
2024/03/16 13:12:23;;;;;;;1.65;0.60;;;;;;;;;;5075216;28;20029;-67
2024/03/16 13:14:49;;;;;;;1.25;0.85;;;;;;;;;;5071639;28;20066;-70
2024/03/16 13:17:15;;;;;;;1.75;0.90;;;;;;;;;;5075550;28;20043;-70
2024/03/16 13:19:41;;;;;;;1.05;0.70;;;;;;;;;;5075285;28;20017;-69
2024/03/16 13:22:09;;;;;;;2.45;0.80;;;;;;;;;;5055479;28;20027;-70
2024/03/16 13:24:35;;;;;;;2.08;0.60;;;;;;;;;;5058222;28;20017;-70
2024/03/16 13:27:05;;;;;;;2.10;0.80;;;;;;;;;;5054794;28;20666;-68
2024/03/16 13:29:31;;;;;;;3.53;1.02;;;;;;;;;;5062788;28;20029;-67
2024/03/16 13:31:57;;;;;;;5.97;1.13;;;;;;;;;;5072617;28;20147;-68
2024/03/16 13:34:23;;;;;;;4.32;1.00;;;;;;;;;;5059814;28;20013;-68
2024/03/16 13:36:49;;;;;;;6.68;1.40;;;;;;;;;;5085228;28;20020;-67
2024/03/16 13:39:16;;;;;;;2.63;1.08;;;;;;;;;;5075243;28;20108;-69
2024/03/16 13:41:43;;;;;;;3.30;0.77;;;;;;;;;;5087719;28;20343;-68
2024/03/16 13:44:10;;;;;;;2.20;0.70;;;;;;;;;;5079043;28;20043;-70
2024/03/16 13:46:36;;;;;;;0.70;0.40;;;;;;;;;;5082783;28;20028;-69
2024/03/16 13:49:03;;;;;;;6.30;0.60;;;;;;;;;;5076999;28;20025;-68
2024/03/16 13:51:30;;;;;;;1.80;0.40;;;;;;;;;;5087663;28;20504;-69
2024/03/16 13:53:56;;;;;;;6.07;0.88;;;;;;;;;;5071145;28;20131;-68
2024/03/16 13:56:22;;;;;;;1.67;0.70;;;;;;;;;;5072195;28;20118;-69
2024/03/16 13:58:48;;;;;;;2.13;0.38;;;;;;;;;;5084477;28;20046;-66
2024/03/16 14:01:20;;;;;;;2.40;0.40;;;;;;;;;;5056819;28;20039;-70
2024/03/16 14:03:48;;;;;;;3.33;0.82;;;;;;;;;;5069114;28;20025;-67
2024/03/16 14:06:14;;;;;;;2.10;0.30;;;;;;;;;;5073404;28;20103;-68
2024/03/16 14:09:06;;;;;;;0.80;0.47;;;;;;;;;;5083763;28;20016;-68
2024/03/16 14:11:33;;;;;;;0.65;0.30;;;;;;;;;;5078084;28;20021;-70
2024/03/16 14:13:59;;;;;;;3.15;0.55;;;;;;;;;;5068633;28;20505;-68
2024/03/16 14:16:25;;;;;;;2.05;0.40;;;;;;;;;;5071290;28;20071;-69
2024/03/16 14:18:51;;;;;;;1.55;0.40;;;;;;;;;;5073444;28;20103;-71
2024/03/16 14:21:17;;;;;;;0.80;0.50;;;;;;;;;;5078715;28;20034;-66
2024/03/16 14:23:44;;;;;;;1.90;0.38;;;;;;;;;;5055244;28;20036;-69
2024/03/16 14:26:10;;;;;;;0.60;0.32;;;;;;;;;;5075129;28;20107;-69
2024/03/16 14:28:36;;;;;;;2.65;0.40;;;;;;;;;;5071002;28;20104;-68
2024/03/16 14:31:03;;;;;;;2.38;0.28;;;;;;;;;;5072094;28;20028;-68
2024/03/16 14:33:29;;;;;;;0.63;0.38;;;;;;;;;;5056085;28;20020;-67
2024/03/16 14:35:55;;;;;;;3.50;0.30;;;;;;;;;;5056708;28;20051;-69
2024/03/16 14:38:21;;;;;;;1.10;0.25;;;;;;;;;;5056178;28;20021;-69
2024/03/16 14:40:48;;;;;;;1.92;0.25;;;;;;;;;;5073337;28;20107;-69
2024/03/16 14:43:20;;;;;;;2.28;0.28;;;;;;;;;;5074858;28;20035;-69